To NAV CANADA Home Page Login to a new session Search on AWWS site Disclaimer Vers la page française équivalente Tips FAQ What's new on the site To the Forecasts and Observations / NOTAM section To "File a Flight Plan" website Publications and other links Update of the User's profile FIC Telephone Numbers My Weather Data Folder Route Weather Data Regional Weather Data Local Weather Data To the Forecasts and Observations / NOTAM section
Request Generated 05/17/2021 at 21:56:29 UTC . Weather information available at that time is displayed.

METAR/TAF

HAMILTON/ON    

METAR CYHM 172100Z 20006KT 150V220 15SM FEW035 SCT073 23/06 A3023 RMK CU1AC2 SLP239 DENSITY ALT 1600FT=
METAR CYHM 172000Z 18006KT 140V230 15SM FEW035 FEW250 23/08 A3023 RMK CU2CI1 CI TR SLP241 DENSITY ALT 1600FT=
METAR CYHM 171900Z 21008G15KT 130V230 15SM FEW045 FEW250 23/07 A3024 RMK CU1CI1 CU TR SLP244 DENSITY ALT 1500FT=

TAF CYHM 171739Z 1718/1818 22009KT P6SM SCT080
FM180200 24006KT P6SM SKC
BECMG 1807/1809 27005KT
FM181500 27010KT P6SM FEW080
RMK NXT FCST BY 180000Z=
Your time UTC time
Weather data provided by Environment Canada and NAV CANADA